Time;durP1;ratioP1;P1;durP2;ratioP2;P2;SDS_P1;SDS_P2;PMS_P1;PMS_P2;Temp;Humidity;BMP_temperature;BMP_pressure;BME280_temperature;BME280_humidity;BME280_pressure;Samples;Min_cycle;Max_cycle;Signal;HPM_P1;HPM_P2
2023/05/08 00:01:56;;;;;;;;;;;;;;;24.02;100.00;99280.59;5008593;28;20876;-42
2023/05/08 00:04:21;;;;;;;;;;;;;;;22.11;100.00;99319.16;5006289;28;20429;-42
2023/05/08 00:06:47;;;;;;;;;;;;;;;22.06;100.00;99344.91;5009107;28;19931;-42
2023/05/08 00:09:12;;;;;;;;;;;;;;;22.58;100.00;99323.59;5008606;28;19967;-42
2023/05/08 00:11:37;;;;;;;;;;;;;;;22.16;100.00;99350.31;5005686;28;19913;-42
2023/05/08 00:14:03;;;;;;;;;;;;;;;23.38;100.00;99305.91;5007384;28;19925;-42
2023/05/08 00:16:28;;;;;;;;;;;;;;;23.71;100.00;99288.34;5005691;28;20003;-42
2023/05/08 00:18:53;;;;;;;;;;;;;;;23.79;100.00;99285.16;5007143;28;20043;-42
2023/05/08 00:21:19;;;;;;;;;;;;;;;23.76;100.00;99283.56;5006550;28;19921;-42
2023/05/08 00:23:44;;;;;;;;;;;;;;;23.72;100.00;99281.28;5005553;28;19925;-42
2023/05/08 00:26:09;;;;;;;;;;;;;;;23.78;100.00;99271.13;5007357;28;19924;-42
2023/05/08 00:28:34;;;;;;;;;;;;;;;23.82;100.00;99278.78;5006820;28;20069;-42
2023/05/08 00:31:03;;;;;;;;;;;;;;;23.77;100.00;99280.00;5006348;28;19924;-42
2023/05/08 00:33:28;;;;;;;;;;;;;;;23.91;100.00;99272.78;5008800;28;19925;-42
2023/05/08 00:36:00;;;;;;;;;;;;;;;23.77;100.00;99274.75;5005921;28;20022;-42
2023/05/08 00:38:25;;;;;;;;;;;;;;;23.59;100.00;99281.47;5006595;28;19917;-43
2023/05/08 00:40:50;;;;;;;;;;;;;;;22.99;100.00;99309.94;5006774;28;19928;-43
2023/05/08 00:43:16;;;;;;;;;;;;;;;23.49;100.00;99283.16;5006200;28;19920;-43
2023/05/08 00:45:41;;;;;;;;;;;;;;;23.64;100.00;99281.09;5007131;28;20352;-42
2023/05/08 00:48:06;;;;;;;;;;;;;;;23.75;100.00;99275.84;5006294;28;19929;-42
2023/05/08 00:50:31;;;;;;;;;;;;;;;23.61;100.00;99295.34;5006469;28;19921;-41
2023/05/08 00:52:57;;;;;;;;;;;;;;;23.52;100.00;99282.94;5006328;28;20668;-42
2023/05/08 00:55:22;;;;;;;;;;;;;;;23.74;100.00;99279.38;5005762;28;20011;-42
2023/05/08 00:57:47;;;;;;;;;;;;;;;22.81;100.00;99309.53;5005930;28;20965;-42
2023/05/08 01:00:14;;;;;;;;;;;;;;;20.70;100.00;99360.66;5008406;28;19924;-42
2023/05/08 01:02:39;;;;;;;;;;;;;;;20.63;100.00;99380.34;4942052;28;1799550;-42
2023/05/08 01:05:04;;;;;;;;;;;;;;;20.61;100.00;99387.44;5006932;28;19925;-42
2023/05/08 01:07:30;;;;;;;;;;;;;;;20.93;100.00;99387.88;5006991;28;20086;-42
2023/05/08 01:09:55;;;;;;;;;;;;;;;20.44;100.00;99405.09;4989431;28;19941;-42
2023/05/08 01:12:24;;;;;;;;;;;;;;;20.37;100.00;99406.44;5005600;28;19917;-42
2023/05/08 01:15:06;;;;;;;;;;;;;;;21.23;100.00;99390.19;5006279;28;20278;-42
2023/05/08 01:17:35;;;;;;;;;;;;;;;20.89;100.00;99386.41;4988432;28;20016;-42
2023/05/08 01:20:00;;;;;;;;;;;;;;;21.87;100.00;99381.28;5007058;28;19921;-42
2023/05/08 01:22:44;;;;;;;;;;;;;;;21.98;100.00;99368.25;5007722;28;20400;-42
2023/05/08 01:25:15;;;;;;;;;;;;;;;20.67;100.00;99381.81;5007616;28;19921;-42
2023/05/08 01:27:49;;;;;;;;;;;;;;;21.43;100.00;99385.34;5007012;28;19929;-42
2023/05/08 01:30:17;;;;;;;;;;;;;;;21.88;100.00;99364.63;5006944;28;20516;-42
2023/05/08 01:32:42;;;;;;;;;;;;;;;22.01;100.00;99354.91;5006383;28;19950;-42
2023/05/08 01:35:11;;;;;;;;;;;;;;;21.25;100.00;99369.91;4986466;28;19929;-41
2023/05/08 01:37:39;;;;;;;;;;;;;;;22.18;100.00;99348.41;5005806;28;19925;-42
2023/05/08 01:40:04;;;;;;;;;;;;;;;21.90;100.00;99367.97;5008887;28;21611;-42
2023/05/08 01:42:41;;;;;;;;;;;;;;;22.63;100.00;99339.84;5006043;28;19921;-42
2023/05/08 01:45:09;;;;;;;;;;;;;;;23.05;100.00;99313.84;5007255;28;19948;-42
2023/05/08 01:47:36;;;;;;;;;;;;;;;23.13;100.00;99306.22;5003714;28;19933;-42
2023/05/08 01:50:13;;;;;;;;;;;;;;;23.23;100.00;99299.25;4985407;28;19928;-42
2023/05/08 01:52:42;;;;;;;;;;;;;;;23.04;100.00;99310.41;4985354;28;19928;-42
2023/05/08 01:55:11;;;;;;;;;;;;;;;22.82;100.00;99320.88;5002551;28;20390;-42
2023/05/08 01:57:39;;;;;;;;;;;;;;;21.36;100.00;99369.16;4999626;28;20661;-42
2023/05/08 02:00:04;;;;;;;;;;;;;;;21.05;100.00;99373.09;4985925;28;19928;-42
2023/05/08 02:02:30;;;;;;;;;;;;;;;21.45;100.00;99380.81;4997868;28;19971;-42
2023/05/08 02:04:55;;;;;;;;;;;;;;;21.91;100.00;99372.25;4999654;28;19937;-42
2023/05/08 02:07:21;;;;;;;;;;;;;;;20.87;100.00;99378.69;4984592;28;19944;-42
2023/05/08 02:09:46;;;;;;;;;;;;;;;20.81;100.00;99397.41;5004185;28;19921;-42
2023/05/08 02:12:11;;;;;;;;;;;;;;;20.58;100.00;99409.44;5003361;28;20487;-42
2023/05/08 02:14:36;;;;;;;;;;;;;;;22.17;100.00;99353.75;5003717;28;20293;-42
2023/05/08 02:17:02;;;;;;;;;;;;;;;22.24;100.00;99355.03;4999979;28;20558;-42
2023/05/08 02:19:27;;;;;;;;;;;;;;;22.59;100.00;99323.47;5005361;28;20047;-42
2023/05/08 02:21:52;;;;;;;;;;;;;;;21.62;100.00;99338.53;5004635;28;19924;-42
2023/05/08 02:24:18;;;;;;;;;;;;;;;22.42;100.00;99323.91;5002008;28;19967;-42
2023/05/08 02:26:43;;;;;;;;;;;;;;;22.55;100.00;99322.03;4986354;28;19979;-42
2023/05/08 02:29:08;;;;;;;;;;;;;;;22.97;100.00;99307.38;5004376;28;20114;-42
2023/05/08 02:31:34;;;;;;;;;;;;;;;21.33;100.00;99352.84;4988495;28;20053;-42
2023/05/08 02:33:59;;;;;;;;;;;;;;;21.82;100.00;99355.41;5004830;28;20039;-42
2023/05/08 02:36:25;;;;;;;;;;;;;;;22.15;100.00;99346.03;5005779;28;19960;-42
2023/05/08 02:38:50;;;;;;;;;;;;;;;22.84;100.00;99322.41;4987419;28;19971;-42
2023/05/08 02:41:16;;;;;;;;;;;;;;;22.22;100.00;99328.91;4988093;28;19968;-42
2023/05/08 02:43:42;;;;;;;;;;;;;;;22.41;100.00;99322.25;5006456;28;20003;-42
2023/05/08 02:46:26;;;;;;;;;;;;;;;21.48;100.00;99355.25;5006375;28;19975;-42
2023/05/08 02:48:59;;;;;;;;;;;;;;;21.56;100.00;99374.81;5007252;28;19952;-42
2023/05/08 02:51:44;;;;;;;;;;;;;;;21.24;100.00;99380.53;5000416;28;20622;-42
2023/05/08 02:54:13;;;;;;;;;;;;;;;21.40;100.00;99375.03;4971356;28;19983;-42
2023/05/08 02:56:39;;;;;;;;;;;;;;;21.66;100.00;99353.06;5001496;28;19929;-42
2023/05/08 02:59:38;;;;;;;;;;;;;;;20.85;100.00;99380.56;5004036;28;20148;-42
2023/05/08 03:02:16;;;;;;;;;;;;;;;21.64;100.00;99360.19;4985032;28;19921;-42
2023/05/08 03:04:46;;;;;;;;;;;;;;;22.23;100.00;99334.97;4988504;28;19928;-42
2023/05/08 03:07:11;;;;;;;;;;;;;;;22.45;100.00;99318.47;5006738;28;19952;-44
2023/05/08 03:09:43;;;;;;;;;;;;;;;22.38;100.00;99304.97;5005918;28;20185;-42
2023/05/08 03:12:10;;;;;;;;;;;;;;;21.58;100.00;99342.31;5003827;28;20131;-42
2023/05/08 03:14:37;;;;;;;;;;;;;;;21.77;100.00;99346.22;5004743;28;19921;-42
2023/05/08 03:17:03;;;;;;;;;;;;;;;21.41;100.00;99361.00;5003572;28;21301;-42
2023/05/08 03:19:35;;;;;;;;;;;;;;;21.86;100.00;99353.41;5003023;28;19944;-42
2023/05/08 03:22:00;;;;;;;;;;;;;;;21.87;100.00;99337.59;5004456;28;20405;-41
2023/05/08 03:24:26;;;;;;;;;;;;;;;21.42;100.00;99337.34;5003442;28;20818;-41
2023/05/08 03:26:52;;;;;;;;;;;;;;;21.64;100.00;99348.88;5003716;28;20585;-42
2023/05/08 03:29:17;;;;;;;;;;;;;;;21.38;100.00;99366.47;5005476;28;20425;-42
2023/05/08 03:31:42;;;;;;;;;;;;;;;20.21;100.00;99392.69;5002938;28;20572;-41
2023/05/08 03:34:07;;;;;;;;;;;;;;;20.59;100.00;99384.94;5005818;28;19928;-41
2023/05/08 03:36:33;;;;;;;;;;;;;;;21.47;100.00;99376.31;5004981;28;19978;-41
2023/05/08 03:38:58;;;;;;;;;;;;;;;20.22;100.00;99407.44;5005812;28;20616;-41
2023/05/08 03:41:24;;;;;;;;;;;;;;;21.09;100.00;99387.66;5003849;28;20943;-41
2023/05/08 03:43:49;;;;;;;;;;;;;;;21.04;100.00;99379.28;5004307;28;20468;-41
2023/05/08 03:46:14;;;;;;;;;;;;;;;20.99;100.00;99391.88;5002867;28;19952;-41
2023/05/08 03:48:39;;;;;;;;;;;;;;;20.12;100.00;99401.16;5005796;28;20048;-41
2023/05/08 03:51:04;;;;;;;;;;;;;;;19.87;100.00;99423.63;5006188;28;19921;-41
2023/05/08 03:53:30;;;;;;;;;;;;;;;20.83;100.00;99407.78;5004306;28;20022;-41
2023/05/08 03:55:56;;;;;;;;;;;;;;;20.45;100.00;99411.97;5003636;28;19956;-41
2023/05/08 03:58:27;;;;;;;;;;;;;;;20.78;100.00;99400.25;5007091;28;20379;-41
2023/05/08 04:01:07;;;;;;;;;;;;;;;20.84;100.00;99394.56;5005580;28;19929;-41
2023/05/08 04:03:51;;;;;;;;;;;;;;;20.90;100.00;99393.34;5005695;28;20493;-41
2023/05/08 04:06:31;;;;;;;;;;;;;;;22.10;100.00;99356.00;5007183;28;20039;-41
2023/05/08 04:08:59;;;;;;;;;;;;;;;22.10;100.00;99332.41;4998550;28;19939;-41
2023/05/08 04:11:25;;;;;;;;;;;;;;;21.43;100.00;99359.13;5003941;28;20244;-41
2023/05/08 04:13:53;;;;;;;;;;;;;;;21.01;100.00;99363.81;4985723;28;20689;-41
2023/05/08 04:16:27;;;;;;;;;;;;;;;20.67;100.00;99377.41;5004745;28;19952;-41
2023/05/08 04:18:57;;;;;;;;;;;;;;;20.10;100.00;99409.09;5003860;28;19971;-41
2023/05/08 04:21:23;;;;;;;;;;;;;;;21.67;100.00;99378.34;4987810;28;19951;-41
2023/05/08 04:23:49;;;;;;;;;;;;;;;20.48;100.00;99383.03;4987440;28;19936;-40
2023/05/08 04:26:15;;;;;;;;;;;;;;;20.67;100.00;99392.28;5005557;28;19921;-41
2023/05/08 04:28:41;;;;;;;;;;;;;;;20.29;100.00;99400.88;5003186;28;19927;-40
2023/05/08 04:31:06;;;;;;;;;;;;;;;21.09;100.00;99403.38;5006179;28;19913;-41
2023/05/08 04:33:33;;;;;;;;;;;;;;;21.16;100.00;99375.81;5004750;28;19931;-41
2023/05/08 04:36:00;;;;;;;;;;;;;;;21.56;100.00;99378.28;5001188;28;19917;-41
2023/05/08 04:38:25;;;;;;;;;;;;;;;21.15;100.00;99382.00;5006519;28;19921;-41
2023/05/08 04:40:50;;;;;;;;;;;;;;;21.63;100.00;99369.03;5004930;28;19917;-41
2023/05/08 04:43:15;;;;;;;;;;;;;;;21.03;100.00;99382.88;5004959;28;19921;-41
2023/05/08 04:45:40;;;;;;;;;;;;;;;22.18;100.00;99351.03;5001666;28;19917;-41
2023/05/08 04:48:06;;;;;;;;;;;;;;;21.83;100.00;99351.03;5006005;28;19921;-41
2023/05/08 04:50:31;;;;;;;;;;;;;;;22.38;100.00;99327.75;5005468;28;20003;-41
2023/05/08 04:52:56;;;;;;;;;;;;;;;22.32;100.00;99326.41;4985294;28;20132;-41
2023/05/08 04:55:21;;;;;;;;;;;;;;;22.25;100.00;99340.94;5003952;28;20221;-41
2023/05/08 04:57:47;;;;;;;;;;;;;;;21.73;100.00;99337.72;5005508;28;20051;-41
2023/05/08 05:00:12;;;;;;;;;;;;;;;22.72;100.00;99333.88;5003904;28;20075;-41
2023/05/08 05:02:37;;;;;;;;;;;;;;;20.65;100.00;99376.69;5003229;28;20378;-41
2023/05/08 05:05:03;;;;;;;;;;;;;;;20.98;100.00;99398.03;5003643;28;19921;-41
2023/05/08 05:07:28;;;;;;;;;;;;;;;22.61;100.00;99352.25;5002406;28;20053;-41
2023/05/08 05:09:53;;;;;;;;;;;;;;;22.75;100.00;99338.88;5008471;28;19975;-41
2023/05/08 05:12:18;;;;;;;;;;;;;;;22.44;100.00;99345.63;5008643;28;19917;-41
2023/05/08 05:14:44;;;;;;;;;;;;;;;21.30;100.00;99385.31;5005485;28;19925;-41
2023/05/08 05:17:09;;;;;;;;;;;;;;;21.88;100.00;99380.38;5008026;28;19922;-41
2023/05/08 05:19:34;;;;;;;;;;;;;;;21.76;100.00;99378.59;5006994;28;19921;-41
2023/05/08 05:21:59;;;;;;;;;;;;;;;21.93;100.00;99373.00;5003970;28;19924;-41
2023/05/08 05:24:25;;;;;;;;;;;;;;;21.04;100.00;99374.06;5005217;28;19917;-41
2023/05/08 05:26:50;;;;;;;;;;;;;;;22.14;100.00;99366.16;5005316;28;21720;-41
2023/05/08 05:29:15;;;;;;;;;;;;;;;22.22;100.00;99359.56;5004862;28;19921;-41
2023/05/08 05:31:41;;;;;;;;;;;;;;;22.13;100.00;99364.50;5003977;28;19924;-41
2023/05/08 05:34:06;;;;;;;;;;;;;;;22.30;100.00;99346.69;5005540;28;19957;-41
2023/05/08 05:36:32;;;;;;;;;;;;;;;22.75;100.00;99344.16;5005209;28;20289;-41
2023/05/08 05:38:57;;;;;;;;;;;;;;;22.38;100.00;99341.72;4985248;28;21342;-41
2023/05/08 05:41:23;;;;;;;;;;;;;;;22.79;100.00;99355.25;5005167;28;19960;-41
2023/05/08 05:43:48;;;;;;;;;;;;;;;22.05;100.00;99379.94;5003964;28;19921;-41
2023/05/08 05:46:13;;;;;;;;;;;;;;;22.42;100.00;99356.28;5003901;28;20183;-41
2023/05/08 05:48:38;;;;;;;;;;;;;;;21.87;100.00;99390.03;5005416;28;19929;-41
2023/05/08 05:51:04;;;;;;;;;;;;;;;22.38;100.00;99381.06;5004614;28;19921;-41
2023/05/08 05:53:29;;;;;;;;;;;;;;;20.74;100.00;99430.19;4985498;28;20463;-41
2023/05/08 05:55:55;;;;;;;;;;;;;;;22.79;100.00;99403.34;5004214;28;19917;-41
2023/05/08 05:58:20;;;;;;;;;;;;;;;21.34;100.00;99443.59;5003969;28;19929;-41
2023/05/08 06:00:46;;;;;;;;;;;;;;;19.72;100.00;99466.41;5001111;28;19928;-41
2023/05/08 06:03:12;;;;;;;;;;;;;;;19.82;100.00;99510.19;5007891;28;19970;-41
2023/05/08 06:05:38;;;;;;;;;;;;;;;22.24;100.00;99470.47;5008357;28;19917;-41
2023/05/08 06:08:04;;;;;;;;;;;;;;;22.10;100.00;99440.78;5008016;28;19932;-41
2023/05/08 06:10:29;;;;;;;;;;;;;;;22.28;100.00;99440.41;5006277;28;19944;-41
2023/05/08 06:12:55;;;;;;;;;;;;;;;21.10;100.00;99479.22;5006692;28;19917;-41
2023/05/08 06:15:21;;;;;;;;;;;;;;;21.40;100.00;99501.69;5007842;28;19929;-41
2023/05/08 06:17:46;;;;;;;;;;;;;;;22.66;100.00;99482.19;5009180;28;20285;-46
2023/05/08 06:20:11;;;;;;;;;;;;;;;23.87;100.00;99400.22;5008805;28;19922;-41
2023/05/08 06:22:38;;;;;;;;;;;;;;;21.92;100.00;99424.59;5005924;28;20374;-41
2023/05/08 06:25:05;;;;;;;;;;;;;;;22.55;100.00;99448.88;5009010;28;20112;-42
2023/05/08 06:27:31;;;;;;;;;;;;;;;20.74;100.00;99492.16;5005996;28;19931;-41
2023/05/08 06:29:56;;;;;;;;;;;;;;;23.13;100.00;99435.78;5006069;28;19921;-41
2023/05/08 06:32:21;;;;;;;;;;;;;;;24.33;100.00;99391.19;5007059;28;20278;-41
2023/05/08 06:34:47;;;;;;;;;;;;;;;24.74;100.00;99361.41;5006394;28;19984;-41
2023/05/08 06:37:12;;;;;;;;;;;;;;;25.06;100.00;99355.19;5009496;28;20470;-41
2023/05/08 06:39:37;;;;;;;;;;;;;;;24.45;100.00;99361.22;5005210;28;19940;-42
2023/05/08 06:42:05;;;;;;;;;;;;;;;22.42;100.00;99427.13;5008362;28;20086;-42
2023/05/08 06:44:30;;;;;;;;;;;;;;;24.09;100.00;99408.06;5007940;28;19928;-42
2023/05/08 06:46:55;;;;;;;;;;;;;;;24.43;100.00;99385.03;5007035;28;19920;-42
2023/05/08 06:49:21;;;;;;;;;;;;;;;22.51;100.00;99447.44;5005710;28;20632;-41
2023/05/08 06:51:47;;;;;;;;;;;;;;;23.04;100.00;99430.41;5009148;28;19921;-41
2023/05/08 06:54:12;;;;;;;;;;;;;;;24.71;100.00;99390.66;5007494;28;19927;-41
2023/05/08 06:56:37;;;;;;;;;;;;;;;25.34;100.00;99356.28;5009672;28;20000;-41
2023/05/08 06:59:02;;;;;;;;;;;;;;;24.53;100.00;99371.97;5007337;28;20628;-42
2023/05/08 07:01:28;;;;;;;;;;;;;;;23.78;100.00;99392.13;5004159;28;19960;-41
2023/05/08 07:03:53;;;;;;;;;;;;;;;22.91;100.00;99418.16;5007614;28;20074;-42
2023/05/08 07:06:18;;;;;;;;;;;;;;;24.78;100.00;99390.97;5006548;28;20349;-42
2023/05/08 07:08:43;;;;;;;;;;;;;;;24.60;100.00;99394.19;5007496;28;20040;-42
2023/05/08 07:11:11;;;;;;;;;;;;;;;23.13;100.00;99432.31;5004831;28;20067;-42
2023/05/08 07:13:36;;;;;;;;;;;;;;;21.68;100.00;99487.47;5006900;28;19921;-42
2023/05/08 07:16:02;;;;;;;;;;;;;;;21.58;100.00;99507.44;5008442;28;20141;-42
2023/05/08 07:18:27;;;;;;;;;;;;;;;21.16;100.00;99525.09;5007063;28;19917;-42
2023/05/08 07:20:52;;;;;;;;;;;;;;;23.13;100.00;99484.88;5008330;28;20433;-41
2023/05/08 07:23:18;;;;;;;;;;;;;;;23.02;100.00;99466.47;5003362;28;20860;-41
2023/05/08 07:25:43;;;;;;;;;;;;;;;21.97;100.00;99489.84;4990226;28;20522;-41
2023/05/08 07:28:08;;;;;;;;;;;;;;;23.70;100.00;99447.09;5006255;28;19948;-41
2023/05/08 07:30:34;;;;;;;;;;;;;;;23.18;100.00;99438.03;5005618;28;19921;-41
2023/05/08 07:32:59;;;;;;;;;;;;;;;24.08;100.00;99435.31;5006186;28;19928;-41
2023/05/08 07:35:25;;;;;;;;;;;;;;;24.15;100.00;99425.97;5006153;28;20393;-41
2023/05/08 07:37:50;;;;;;;;;;;;;;;23.44;100.00;99445.69;5006902;28;20059;-41
2023/05/08 07:40:15;;;;;;;;;;;;;;;25.45;100.00;99385.19;5006762;28;20730;-41
2023/05/08 07:42:41;;;;;;;;;;;;;;;24.70;100.00;99393.41;5003701;28;19960;-42
2023/05/08 07:45:10;;;;;;;;;;;;;;;24.77;100.00;99384.88;5006003;28;19925;-42
2023/05/08 07:47:35;;;;;;;;;;;;;;;24.61;100.00;99411.66;5006760;28;19920;-42
2023/05/08 07:50:00;;;;;;;;;;;;;;;23.58;100.00;99429.66;5008235;28;20416;-42
2023/05/08 07:52:26;;;;;;;;;;;;;;;23.35;100.00;99441.97;5010169;28;20043;-42
2023/05/08 07:54:51;;;;;;;;;;;;;;;24.26;100.00;99421.63;5005561;28;21250;-42
2023/05/08 07:57:16;;;;;;;;;;;;;;;23.93;100.00;99431.31;5007054;28;20211;-42
2023/05/08 07:59:41;;;;;;;;;;;;;;;23.98;100.00;99431.78;5004829;28;20019;-42
2023/05/08 08:02:06;;;;;;;;;;;;;;;24.65;100.00;99425.41;5001717;28;19925;-42
2023/05/08 08:04:32;;;;;;;;;;;;;;;25.52;100.00;99397.81;5006320;28;19931;-42
2023/05/08 08:06:57;;;;;;;;;;;;;;;25.12;100.00;99398.63;5005030;28;19920;-42
2023/05/08 08:09:22;;;;;;;;;;;;;;;25.71;100.00;99370.66;5005564;28;19925;-42
2023/05/08 08:11:47;;;;;;;;;;;;;;;25.70;100.00;99367.16;5005319;28;19921;-42
2023/05/08 08:14:13;;;;;;;;;;;;;;;26.98;100.00;99348.44;5005581;28;19921;-42
2023/05/08 08:16:38;;;;;;;;;;;;;;;24.11;100.00;99394.78;5005550;28;19923;-42
2023/05/08 08:19:03;;;;;;;;;;;;;;;24.71;100.00;99395.09;5008004;28;20144;-43
2023/05/08 08:21:29;;;;;;;;;;;;;;;24.16;100.00;99425.00;5005035;28;19986;-42
2023/05/08 08:23:55;;;;;;;;;;;;;;;25.83;100.00;99399.41;5002710;28;19917;-42
2023/05/08 08:26:20;;;;;;;;;;;;;;;28.34;100.00;99326.31;5006125;28;20384;-42
2023/05/08 08:28:46;;;;;;;;;;;;;;;27.98;100.00;99324.72;5005717;28;21203;-42
2023/05/08 08:31:11;;;;;;;;;;;;;;;27.48;100.00;99339.28;5005464;28;20369;-42
2023/05/08 08:33:36;;;;;;;;;;;;;;;25.92;100.00;99354.72;5003965;28;19925;-42
2023/05/08 08:36:02;;;;;;;;;;;;;;;26.55;100.00;99357.75;5005842;28;20428;-42
2023/05/08 08:38:27;;;;;;;;;;;;;;;26.94;100.00;99331.19;5003606;28;20276;-42
2023/05/08 08:40:53;;;;;;;;;;;;;;;25.86;100.00;99367.47;5005089;28;19949;-42
2023/05/08 08:43:18;;;;;;;;;;;;;;;26.59;100.00;99345.09;4986711;28;20015;-42
2023/05/08 08:45:43;;;;;;;;;;;;;;;26.32;100.00;99329.97;5003773;28;19921;-42
2023/05/08 08:48:10;;;;;;;;;;;;;;;26.60;100.00;99323.81;5004972;28;19924;-43
2023/05/08 08:50:35;;;;;;;;;;;;;;;26.03;100.00;99336.13;5005537;28;19989;-42
2023/05/08 08:53:09;;;;;;;;;;;;;;;26.63;100.00;99347.28;5002751;28;19924;-43
2023/05/08 08:55:36;;;;;;;;;;;;;;;26.47;100.00;99328.53;5003659;28;19932;-42
2023/05/08 08:58:04;;;;;;;;;;;;;;;27.03;100.00;99330.31;5003423;28;20511;-42
2023/05/08 09:00:32;;;;;;;;;;;;;;;27.72;100.00;99320.19;5001659;28;19917;-42
2023/05/08 09:02:58;;;;;;;;;;;;;;;28.05;100.00;99297.47;4987228;28;20688;-43
2023/05/08 09:05:23;;;;;;;;;;;;;;;28.62;100.00;99286.44;5001830;28;20019;-43
2023/05/08 09:07:49;;;;;;;;;;;;;;;29.42;99.10;99294.03;5005172;28;19921;-42
2023/05/08 09:10:14;;;;;;;;;;;;;;;28.48;100.00;99305.59;4987137;28;19921;-42
2023/05/08 09:12:40;;;;;;;;;;;;;;;29.40;100.00;99301.34;4987777;28;19956;-42
2023/05/08 09:15:06;;;;;;;;;;;;;;;27.47;100.00;99335.81;5004499;28;20511;-42
2023/05/08 09:17:31;;;;;;;;;;;;;;;26.80;100.00;99377.44;5009106;28;20380;-43
2023/05/08 09:19:56;;;;;;;;;;;;;;;25.61;100.00;99400.50;5008199;28;20428;-42
2023/05/08 09:22:23;;;;;;;;;;;;;;;27.75;100.00;99335.75;5004915;28;19960;-42
2023/05/08 09:24:58;;;;;;;;;;;;;;;26.77;100.00;99363.66;5006577;28;20472;-43
2023/05/08 09:27:24;;;;;;;;;;;;;;;25.92;100.00;99399.59;5007659;28;20135;-42
2023/05/08 09:29:59;;;;;;;;;;;;;;;25.65;100.00;99417.69;5007655;28;19920;-42
2023/05/08 09:32:24;;;;;;;;;;;;;;;26.57;100.00;99363.75;5006669;28;20016;-42
2023/05/08 09:34:53;;;;;;;;;;;;;;;28.90;100.00;99328.69;5005726;28;20366;-43
2023/05/08 09:37:18;;;;;;;;;;;;;;;26.82;100.00;99348.19;5011689;28;19975;-43
2023/05/08 09:39:45;;;;;;;;;;;;;;;28.53;100.00;99308.59;5011320;28;19936;-43
2023/05/08 09:42:11;;;;;;;;;;;;;;;29.77;100.00;99297.44;5009595;28;20630;-43
2023/05/08 09:44:43;;;;;;;;;;;;;;;29.09;100.00;99319.66;5009088;28;19916;-42
2023/05/08 09:47:19;;;;;;;;;;;;;;;29.76;100.00;99309.03;5010213;28;19917;-43
2023/05/08 09:49:57;;;;;;;;;;;;;;;27.13;100.00;99356.72;4992717;28;19925;-43
2023/05/08 09:52:22;;;;;;;;;;;;;;;28.16;100.00;99352.03;5010733;28;19978;-43
2023/05/08 09:54:47;;;;;;;;;;;;;;;26.60;100.00;99366.09;5009978;28;20764;-43
2023/05/08 09:57:13;;;;;;;;;;;;;;;28.32;100.00;99349.50;5010955;28;19971;-42
2023/05/08 09:59:38;;;;;;;;;;;;;;;28.23;100.00;99350.41;5010579;28;19921;-43
2023/05/08 10:02:09;;;;;;;;;;;;;;;28.99;100.00;99328.56;5010092;28;20138;-43
2023/05/08 10:04:34;;;;;;;;;;;;;;;27.00;100.00;99372.06;5009484;28;19925;-43
2023/05/08 10:07:00;;;;;;;;;;;;;;;28.54;100.00;99350.00;5008689;28;20069;-43
2023/05/08 10:09:25;;;;;;;;;;;;;;;28.70;100.00;99325.44;5011157;28;19925;-43
2023/05/08 10:11:51;;;;;;;;;;;;;;;29.27;99.71;99316.91;5010617;28;19924;-43
2023/05/08 10:14:16;;;;;;;;;;;;;;;27.25;100.00;99373.25;5010468;28;19924;-43
2023/05/08 10:16:43;;;;;;;;;;;;;;;27.65;100.00;99356.16;4990978;28;19921;-43
2023/05/08 10:19:15;;;;;;;;;;;;;;;25.08;100.00;99403.31;5010478;28;19928;-43
2023/05/08 10:21:43;;;;;;;;;;;;;;;27.73;100.00;99366.81;5008508;28;20952;-44
2023/05/08 10:24:18;;;;;;;;;;;;;;;26.58;100.00;99394.44;5008662;28;19921;-43
2023/05/08 10:26:50;;;;;;;;;;;;;;;26.10;100.00;99411.13;5010083;28;19974;-43
2023/05/08 10:29:20;;;;;;;;;;;;;;;26.42;100.00;99383.59;4991533;28;19925;-43
2023/05/08 10:31:45;;;;;;;;;;;;;;;27.46;100.00;99362.41;5009883;28;19921;-43
2023/05/08 10:34:18;;;;;;;;;;;;;;;29.38;100.00;99329.88;5009787;28;19970;-43
2023/05/08 10:36:44;;;;;;;;;;;;;;;25.74;100.00;99397.59;5008768;28;19925;-43
2023/05/08 10:39:09;;;;;;;;;;;;;;;25.62;100.00;99417.16;4991436;28;19928;-43
2023/05/08 10:41:35;;;;;;;;;;;;;;;27.19;100.00;99360.59;5009649;28;20007;-43
2023/05/08 10:44:00;;;;;;;;;;;;;;;25.54;100.00;99401.16;5010281;28;19967;-43
2023/05/08 10:46:34;;;;;;;;;;;;;;;26.69;100.00;99359.94;5006716;28;19985;-43
2023/05/08 10:49:04;;;;;;;;;;;;;;;29.93;100.00;99305.41;5009637;28;19933;-44
2023/05/08 10:51:36;;;;;;;;;;;;;;;27.35;100.00;99339.66;4991020;28;19928;-45
2023/05/08 10:54:04;;;;;;;;;;;;;;;27.73;100.00;99364.16;5008327;28;19996;-44
2023/05/08 10:56:29;;;;;;;;;;;;;;;30.35;100.00;99296.41;5008305;28;19916;-44
2023/05/08 10:58:58;;;;;;;;;;;;;;;28.96;98.80;99304.97;5008005;28;19967;-44
2023/05/08 11:01:23;;;;;;;;;;;;;;;28.24;100.00;99330.09;5005987;28;20519;-43
2023/05/08 11:03:53;;;;;;;;;;;;;;;28.94;100.00;99308.78;5007611;28;20018;-44
2023/05/08 11:06:37;;;;;;;;;;;;;;;26.88;100.00;99374.06;5009273;28;19928;-44
2023/05/08 11:09:02;;;;;;;;;;;;;;;25.91;100.00;99390.00;5009262;28;19977;-43
2023/05/08 11:11:28;;;;;;;;;;;;;;;26.39;100.00;99368.88;5006702;28;20011;-44
2023/05/08 11:13:55;;;;;;;;;;;;;;;28.66;100.00;99310.81;5006549;28;21759;-44
2023/05/08 11:16:38;;;;;;;;;;;;;;;26.02;100.00;99408.34;5009695;28;19929;-43
2023/05/08 11:19:17;;;;;;;;;;;;;;;27.86;100.00;99346.13;5011496;28;20404;-44
2023/05/08 11:22:01;;;;;;;;;;;;;;;29.09;100.00;99304.56;5006393;28;20906;-43
2023/05/08 11:24:35;;;;;;;;;;;;;;;26.59;100.00;99342.44;5008312;28;19923;-45
2023/05/08 11:27:00;;;;;;;;;;;;;;;28.64;100.00;99294.25;5008395;28;19921;-43
2023/05/08 11:29:26;;;;;;;;;;;;;;;30.05;91.65;99246.66;5009291;28;19921;-43
2023/05/08 11:31:51;;;;;;;;;;;;;;;27.06;100.00;99340.59;5009244;28;19916;-44
2023/05/08 11:34:35;;;;;;;;;;;;;;;25.92;100.00;99368.75;5007704;28;19920;-44
2023/05/08 11:37:00;;;;;;;;;;;;;;;25.20;100.00;99399.66;5007724;28;19921;-44
2023/05/08 11:39:26;;;;;;;;;;;;;;;25.69;100.00;99381.34;5007826;28;20042;-44
2023/05/08 11:41:51;;;;;;;;;;;;;;;26.12;100.00;99363.50;4990124;28;20002;-43
2023/05/08 11:44:18;;;;;;;;;;;;;;;26.96;100.00;99323.97;5006539;28;19974;-45
2023/05/08 11:46:46;;;;;;;;;;;;;;;26.62;100.00;99360.66;5010526;28;19928;-44
2023/05/08 11:49:14;;;;;;;;;;;;;;;26.47;100.00;99350.50;5008028;28;20297;-43
2023/05/08 11:51:43;;;;;;;;;;;;;;;27.92;100.00;99311.13;5008707;28;19917;-44
2023/05/08 11:54:08;;;;;;;;;;;;;;;25.68;100.00;99416.59;5007893;28;19917;-44
2023/05/08 11:56:34;;;;;;;;;;;;;;;25.23;100.00;99422.28;5007743;28;19971;-45
2023/05/08 11:59:03;;;;;;;;;;;;;;;24.96;100.00;99423.66;5007040;28;19925;-44
2023/05/08 12:01:29;;;;;;;;;;;;;;;24.71;100.00;99453.88;5007701;28;19924;-44
2023/05/08 12:04:05;;;;;;;;;;;;;;;25.18;100.00;99424.44;5009061;28;19928;-44
2023/05/08 12:06:31;;;;;;;;;;;;;;;25.10;100.00;99426.91;5010144;28;19917;-44
2023/05/08 12:08:56;;;;;;;;;;;;;;;26.51;100.00;99372.19;5007798;28;19947;-43
2023/05/08 12:11:24;;;;;;;;;;;;;;;25.03;100.00;99453.78;5010211;28;20499;-44
2023/05/08 12:13:53;;;;;;;;;;;;;;;24.63;100.00;99466.81;5005958;28;20289;-44
2023/05/08 12:16:20;;;;;;;;;;;;;;;23.74;100.00;99476.59;5009087;28;19916;-44
2023/05/08 12:18:46;;;;;;;;;;;;;;;23.99;100.00;99478.16;5008161;28;19920;-44
2023/05/08 12:21:11;;;;;;;;;;;;;;;24.08;100.00;99498.47;4989298;28;20046;-44
2023/05/08 12:23:37;;;;;;;;;;;;;;;23.91;100.00;99476.16;5004356;28;19917;-44
2023/05/08 12:26:02;;;;;;;;;;;;;;;23.97;100.00;99466.91;5006068;28;19955;-43
2023/05/08 12:28:28;;;;;;;;;;;;;;;24.32;100.00;99469.34;5008498;28;19925;-44
2023/05/08 12:30:53;;;;;;;;;;;;;;;24.07;100.00;99457.34;5008304;28;19921;-44
2023/05/08 12:33:19;;;;;;;;;;;;;;;24.33;100.00;99467.53;5007433;28;19928;-43
2023/05/08 12:35:44;;;;;;;;;;;;;;;23.97;100.00;99480.94;4988927;28;19924;-43